Time;durP1;ratioP1;P1;durP2;ratioP2;P2;SDS_P1;SDS_P2;PMS_P1;PMS_P2;Temp;Humidity;BMP_temperature;BMP_pressure;BME280_temperature;BME280_humidity;BME280_pressure;Samples;Min_cycle;Max_cycle;Signal;HPM_P1;HPM_P2
2022/03/06 00:01:19;;;;;;;14.73;11.20;;;1.10;73.70;;;;;;6105149;23;20215;-74
2022/03/06 00:03:47;;;;;;;11.35;9.13;;;1.20;73.80;;;;;;6113653;23;20184;-74
2022/03/06 00:06:14;;;;;;;12.73;9.70;;;1.20;73.30;;;;;;6118225;23;20208;-74
2022/03/06 00:08:41;;;;;;;14.13;9.88;;;1.30;73.70;;;;;;6116930;23;20674;-74
2022/03/06 00:11:09;;;;;;;12.52;9.35;;;1.30;73.80;;;;;;6105391;23;20228;-74
2022/03/06 00:13:36;;;;;;;11.73;9.00;;;1.40;74.10;;;;;;6108448;23;20250;-74
2022/03/06 00:16:03;;;;;;;12.30;10.40;;;1.50;73.80;;;;;;6103474;23;20215;-74
2022/03/06 00:18:32;;;;;;;12.70;9.50;;;1.50;73.50;;;;;;6101692;23;20213;-75
2022/03/06 00:20:59;;;;;;;12.60;9.50;;;1.60;73.70;;;;;;6118733;23;20195;-74
2022/03/06 00:23:26;;;;;;;12.25;9.43;;;1.60;73.60;;;;;;6115804;23;20188;-74
2022/03/06 00:25:53;;;;;;;12.40;9.15;;;1.60;73.60;;;;;;6115535;23;20208;-74
2022/03/06 00:28:21;;;;;;;11.90;9.50;;;1.60;73.40;;;;;;6118703;23;20286;-75
2022/03/06 00:30:47;;;;;;;11.32;9.75;;;1.60;73.70;;;;;;6110474;23;20256;-74
2022/03/06 00:33:14;;;;;;;12.40;9.57;;;1.50;73.90;;;;;;6118124;23;21489;-74
2022/03/06 00:35:43;;;;;;;13.23;9.55;;;1.60;74.80;;;;;;6104892;23;20286;-74
2022/03/06 00:38:10;;;;;;;11.10;8.82;;;1.60;74.30;;;;;;6116458;23;20275;-74
2022/03/06 00:40:37;;;;;;;12.75;9.20;;;1.60;74.50;;;;;;6107100;23;20890;-74
2022/03/06 00:43:04;;;;;;;12.80;9.63;;;1.70;74.60;;;;;;6111332;23;20189;-74
2022/03/06 00:45:31;;;;;;;12.55;9.65;;;1.70;74.20;;;;;;6117950;23;20208;-74
2022/03/06 00:47:58;;;;;;;10.38;8.30;;;1.70;74.30;;;;;;6101980;23;20636;-74
2022/03/06 00:50:25;;;;;;;14.45;10.05;;;1.70;74.40;;;;;;6118528;23;20225;-74
2022/03/06 00:52:54;;;;;;;14.18;9.50;;;1.70;74.90;;;;;;6116913;23;20188;-73
2022/03/06 00:55:21;;;;;;;11.30;8.40;;;1.70;75.10;;;;;;6112548;23;20683;-74
2022/03/06 00:57:48;;;;;;;11.43;9.15;;;1.60;75.30;;;;;;6116267;23;20189;-74
2022/03/06 01:00:15;;;;;;;12.52;9.90;;;1.60;75.60;;;;;;6118554;23;20196;-74
2022/03/06 01:02:42;;;;;;;12.00;9.60;;;1.60;75.80;;;;;;6113678;23;20262;-74
2022/03/06 01:05:09;;;;;;;13.80;10.02;;;1.50;76.00;;;;;;6104319;23;20755;-74
2022/03/06 01:07:36;;;;;;;11.57;9.30;;;1.50;76.30;;;;;;6117277;23;20193;-74
2022/03/06 01:10:06;;;;;;;12.65;9.43;;;1.50;76.80;;;;;;6108759;23;20245;-74
2022/03/06 01:12:33;;;;;;;13.38;8.77;;;1.40;77.00;;;;;;6119172;23;20544;-74
2022/03/06 01:15:00;;;;;;;11.70;9.63;;;1.40;77.20;;;;;;6118768;23;20767;-74
2022/03/06 01:17:27;;;;;;;11.63;9.30;;;1.30;77.40;;;;;;6110852;23;20192;-73
2022/03/06 01:19:54;;;;;;;12.63;9.40;;;1.30;77.90;;;;;;6119859;23;20222;-74
2022/03/06 01:22:21;;;;;;;12.15;8.98;;;1.30;78.20;;;;;;6115021;23;20188;-73
2022/03/06 01:24:48;;;;;;;13.48;9.73;;;1.30;79.00;;;;;;6119422;23;20769;-75
2022/03/06 01:27:16;;;;;;;12.50;8.85;;;1.30;78.50;;;;;;6119537;23;20551;-73
2022/03/06 01:29:44;;;;;;;12.52;9.30;;;1.30;78.60;;;;;;6113155;23;20211;-74
2022/03/06 01:32:11;;;;;;;13.10;9.80;;;1.20;78.80;;;;;;6114188;23;20191;-74
2022/03/06 01:34:38;;;;;;;11.82;9.73;;;1.20;79.00;;;;;;6119722;23;20267;-74
2022/03/06 01:37:05;;;;;;;12.25;9.98;;;1.10;79.20;;;;;;6118212;23;20219;-74
2022/03/06 01:39:32;;;;;;;12.73;9.65;;;1.10;79.80;;;;;;6114225;23;20245;-74
2022/03/06 01:41:59;;;;;;;12.50;9.80;;;1.10;80.20;;;;;;6117063;23;20206;-74
2022/03/06 01:44:27;;;;;;;13.13;10.05;;;1.00;80.40;;;;;;6112993;23;20191;-74
2022/03/06 01:46:54;;;;;;;11.73;9.20;;;1.00;80.70;;;;;;6119068;23;20630;-74
2022/03/06 01:49:21;;;;;;;12.70;9.27;;;1.00;80.90;;;;;;6108706;23;20215;-73
2022/03/06 01:51:48;;;;;;;12.93;9.30;;;0.90;81.10;;;;;;6115601;23;20188;-74
2022/03/06 01:54:15;;;;;;;11.60;9.57;;;0.90;81.60;;;;;;6109400;23;20190;-74
2022/03/06 01:56:43;;;;;;;13.32;10.10;;;0.90;81.80;;;;;;6120831;23;20267;-74
2022/03/06 01:59:10;;;;;;;11.80;9.82;;;0.90;82.10;;;;;;6113382;23;20302;-75
2022/03/06 02:01:39;;;;;;;11.70;9.30;;;0.80;82.30;;;;;;6101207;23;20206;-73
2022/03/06 02:04:06;;;;;;;14.75;11.25;;;0.80;82.60;;;;;;6111980;23;20695;-74
2022/03/06 02:06:33;;;;;;;11.63;9.80;;;0.70;82.90;;;;;;6112236;23;20583;-73
2022/03/06 02:09:00;;;;;;;13.07;10.18;;;0.70;83.40;;;;;;6110060;23;20200;-74
2022/03/06 02:11:27;;;;;;;12.60;10.18;;;0.70;83.80;;;;;;6109288;23;20233;-73
2022/03/06 02:13:55;;;;;;;13.93;10.73;;;0.60;84.00;;;;;;6117168;23;20924;-73
2022/03/06 02:16:22;;;;;;;14.15;10.65;;;0.60;84.40;;;;;;6115175;23;20281;-74
2022/03/06 02:18:50;;;;;;;17.30;11.20;;;0.60;84.90;;;;;;6119380;23;20248;-74
2022/03/06 02:21:19;;;;;;;13.57;9.95;;;0.60;85.40;;;;;;6106734;23;20184;-73
2022/03/06 02:23:47;;;;;;;12.13;9.95;;;0.60;85.70;;;;;;6104523;23;20800;-74
2022/03/06 02:26:14;;;;;;;14.18;11.00;;;0.60;86.10;;;;;;6119504;23;20337;-74
2022/03/06 02:28:42;;;;;;;12.50;9.85;;;0.60;86.50;;;;;;6118224;23;20233;-74
2022/03/06 02:31:11;;;;;;;12.88;10.15;;;0.50;86.70;;;;;;6115506;23;20222;-74
2022/03/06 02:33:38;;;;;;;12.98;9.85;;;0.50;87.20;;;;;;6108309;23;20249;-73
2022/03/06 02:36:06;;;;;;;11.43;9.60;;;0.50;87.70;;;;;;6108372;23;20212;-73
2022/03/06 02:38:34;;;;;;;16.02;10.85;;;0.40;88.00;;;;;;6093847;23;20647;-73
2022/03/06 02:41:01;;;;;;;11.43;9.75;;;0.40;88.50;;;;;;6112249;23;20223;-73
2022/03/06 02:43:28;;;;;;;13.68;10.15;;;0.30;88.90;;;;;;6116680;23;20202;-73
2022/03/06 02:45:55;;;;;;;13.95;10.77;;;0.30;89.50;;;;;;6108862;23;20223;-73
2022/03/06 02:48:22;;;;;;;13.02;10.20;;;0.30;90.00;;;;;;6111740;23;20570;-74
2022/03/06 02:50:51;;;;;;;13.70;10.48;;;0.30;90.20;;;;;;6115025;23;20321;-73
2022/03/06 02:53:22;;;;;;;13.45;10.00;;;0.30;90.40;;;;;;6100758;23;20191;-73
2022/03/06 02:55:51;;;;;;;12.93;9.98;;;0.30;90.50;;;;;;6113635;23;20207;-74
2022/03/06 02:58:18;;;;;;;12.45;9.60;;;0.30;90.70;;;;;;6108101;23;20509;-74
2022/03/06 03:00:46;;;;;;;15.50;10.95;;;0.30;90.90;;;;;;6093988;23;20559;-73
2022/03/06 03:03:13;;;;;;;11.57;9.77;;;0.30;91.10;;;;;;6107719;23;20635;-74
2022/03/06 03:05:40;;;;;;;12.55;10.38;;;0.30;91.20;;;;;;6098747;23;20295;-73
2022/03/06 03:08:07;;;;;;;12.13;10.30;;;0.30;91.20;;;;;;6117396;23;20184;-73
2022/03/06 03:10:34;;;;;;;13.73;9.90;;;0.30;91.30;;;;;;6117735;23;20261;-76
2022/03/06 03:13:02;;;;;;;12.02;9.70;;;0.30;91.50;;;;;;6110399;23;20271;-73
2022/03/06 03:15:29;;;;;;;13.77;10.30;;;0.30;91.60;;;;;;6113261;23;20207;-74
2022/03/06 03:17:56;;;;;;;14.35;11.20;;;0.30;91.60;;;;;;6109412;23;20183;-73
2022/03/06 03:20:23;;;;;;;12.13;9.98;;;0.30;91.80;;;;;;6100976;23;20192;-73
2022/03/06 03:22:50;;;;;;;13.88;9.85;;;0.20;92.10;;;;;;6105973;23;20274;-73
2022/03/06 03:25:17;;;;;;;15.85;10.20;;;0.20;92.30;;;;;;6108187;23;20211;-71
2022/03/06 03:27:44;;;;;;;15.10;10.90;;;0.20;92.40;;;;;;6110041;23;20189;-71
2022/03/06 03:30:14;;;;;;;15.25;10.70;;;0.20;92.60;;;;;;6108294;23;20219;-72
2022/03/06 03:32:41;;;;;;;11.80;9.45;;;0.20;92.80;;;;;;6118469;23;20642;-73
2022/03/06 03:35:09;;;;;;;14.05;10.07;;;0.20;93.00;;;;;;6095092;23;20208;-72
2022/03/06 03:37:36;;;;;;;15.15;10.65;;;0.10;93.30;;;;;;6093396;23;20191;-72
2022/03/06 03:40:04;;;;;;;13.30;10.20;;;0.10;93.40;;;;;;6101988;23;20824;-72
2022/03/06 03:42:31;;;;;;;16.30;11.02;;;0.00;93.50;;;;;;6112972;23;20183;-73
2022/03/06 03:44:58;;;;;;;12.45;10.23;;;0.00;93.80;;;;;;6107359;23;20230;-71
2022/03/06 03:47:26;;;;;;;13.90;10.60;;;0.00;94.20;;;;;;6111552;23;20195;-71
2022/03/06 03:49:53;;;;;;;13.82;10.77;;;-0.10;94.40;;;;;;6101753;23;20222;-72
2022/03/06 03:52:20;;;;;;;13.57;10.75;;;-0.10;94.60;;;;;;6097229;23;20211;-72
2022/03/06 03:54:47;;;;;;;13.93;11.02;;;-0.10;94.90;;;;;;6101855;23;20212;-72
2022/03/06 03:57:15;;;;;;;14.95;11.38;;;-0.10;95.30;;;;;;6112760;23;20262;-73
2022/03/06 03:59:42;;;;;;;12.75;10.05;;;-0.10;95.50;;;;;;6108240;23;20208;-72
2022/03/06 04:02:09;;;;;;;13.57;9.80;;;-0.10;95.70;;;;;;6115208;23;20240;-72
2022/03/06 04:04:38;;;;;;;14.68;10.85;;;-0.10;95.90;;;;;;6108173;23;20213;-72
2022/03/06 04:07:05;;;;;;;13.10;10.85;;;-0.10;96.00;;;;;;6088691;23;20270;-72
2022/03/06 04:09:32;;;;;;;15.95;11.30;;;-0.10;96.20;;;;;;6113348;23;20279;-73
2022/03/06 04:11:59;;;;;;;13.77;10.60;;;-0.10;96.50;;;;;;6108201;23;20183;-71
2022/03/06 04:14:26;;;;;;;13.93;11.50;;;-0.20;96.70;;;;;;6108061;23;20215;-73
2022/03/06 04:16:53;;;;;;;14.77;11.93;;;-0.10;96.90;;;;;;6112871;23;20553;-76
2022/03/06 04:19:20;;;;;;;15.00;11.18;;;-0.20;97.10;;;;;;6116679;23;20194;-72
2022/03/06 04:21:48;;;;;;;14.50;11.15;;;-0.20;97.30;;;;;;6106437;23;20192;-72
2022/03/06 04:24:15;;;;;;;13.68;10.68;;;-0.10;97.60;;;;;;6104142;23;20215;-72
2022/03/06 04:26:42;;;;;;;13.15;10.77;;;-0.10;97.80;;;;;;6108785;23;20267;-72
2022/03/06 04:29:09;;;;;;;14.43;10.68;;;-0.10;97.90;;;;;;6103024;23;20194;-71
2022/03/06 04:31:36;;;;;;;12.15;9.35;;;-0.20;98.10;;;;;;6113787;23;20223;-72
2022/03/06 04:34:03;;;;;;;13.90;10.82;;;-0.20;98.40;;;;;;6113372;23;20635;-71
2022/03/06 04:36:30;;;;;;;14.15;11.18;;;-0.20;98.60;;;;;;6112558;23;20193;-72
2022/03/06 04:38:58;;;;;;;12.15;10.18;;;-0.20;98.80;;;;;;6119147;23;20191;-72
2022/03/06 04:41:25;;;;;;;13.15;10.45;;;-0.20;99.00;;;;;;6105228;23;20196;-72
2022/03/06 04:43:52;;;;;;;16.08;11.13;;;-0.20;99.20;;;;;;6111137;23;20295;-72
2022/03/06 04:46:21;;;;;;;13.35;10.85;;;-0.20;99.30;;;;;;6116008;23;20317;-73
2022/03/06 04:48:48;;;;;;;13.60;10.90;;;-0.20;99.60;;;;;;6115312;23;20226;-73
2022/03/06 04:51:15;;;;;;;14.20;10.80;;;-0.20;99.80;;;;;;6106536;23;20272;-72
2022/03/06 04:53:42;;;;;;;13.48;10.80;;;-0.20;99.90;;;;;;6117497;23;20202;-73
2022/03/06 04:56:10;;;;;;;14.00;11.65;;;-0.30;99.90;;;;;;6115855;23;20687;-72
2022/03/06 04:58:38;;;;;;;14.70;12.68;;;-0.30;99.90;;;;;;6106295;23;20270;-73
2022/03/06 05:01:05;;;;;;;15.57;11.07;;;-0.30;99.90;;;;;;6108383;23;20226;-72
2022/03/06 05:03:32;;;;;;;13.70;11.25;;;-0.30;99.90;;;;;;6116093;23;20192;-73
2022/03/06 05:05:59;;;;;;;14.32;10.73;;;-0.30;99.90;;;;;;6118099;23;20207;-72
2022/03/06 05:08:27;;;;;;;14.73;11.20;;;-0.30;99.90;;;;;;6112632;23;20270;-72
2022/03/06 05:10:55;;;;;;;12.98;11.45;;;-0.30;99.90;;;;;;6096669;23;20667;-72
2022/03/06 05:13:24;;;;;;;14.40;11.80;;;-0.30;99.90;;;;;;6112322;23;20286;-72
2022/03/06 05:15:52;;;;;;;12.30;10.48;;;-0.30;99.90;;;;;;6112162;23;20702;-71
2022/03/06 05:18:19;;;;;;;14.98;11.50;;;-0.30;99.90;;;;;;6114294;23;20585;-72
2022/03/06 05:20:46;;;;;;;14.77;11.18;;;-0.30;99.90;;;;;;6105904;23;20196;-73
2022/03/06 05:23:14;;;;;;;14.00;10.52;;;-0.30;99.90;;;;;;6110991;23;20226;-73
2022/03/06 05:25:40;;;;;;;14.85;11.98;;;-0.30;99.90;;;;;;6108570;23;20211;-73
2022/03/06 05:28:07;;;;;;;14.48;11.88;;;-0.30;99.90;;;;;;6109230;23;20927;-74
2022/03/06 05:30:36;;;;;;;14.00;11.25;;;-0.30;99.90;;;;;;6111504;23;20298;-72
2022/03/06 05:33:03;;;;;;;15.50;13.15;;;-0.30;99.90;;;;;;6117696;23;20210;-73
2022/03/06 05:35:31;;;;;;;16.20;12.43;;;-0.40;99.90;;;;;;6116230;23;20234;-71
2022/03/06 05:37:58;;;;;;;16.00;12.10;;;-0.40;99.90;;;;;;6107096;23;20194;-73
2022/03/06 05:40:26;;;;;;;15.00;10.95;;;-0.40;99.90;;;;;;6107023;23;20210;-73
2022/03/06 05:42:53;;;;;;;14.50;11.40;;;-0.40;99.90;;;;;;6108787;23;20206;-74
2022/03/06 05:45:20;;;;;;;16.75;13.32;;;-0.40;99.90;;;;;;6113029;23;20203;-74
2022/03/06 05:47:49;;;;;;;15.32;12.02;;;-0.40;99.90;;;;;;6113396;23;20646;-73
2022/03/06 05:50:16;;;;;;;16.30;12.35;;;-0.40;99.90;;;;;;6115095;23;20384;-73
2022/03/06 05:52:43;;;;;;;15.68;11.25;;;-0.40;99.90;;;;;;6112871;23;20279;-73
2022/03/06 05:55:10;;;;;;;17.17;12.90;;;-0.30;99.90;;;;;;6118078;23;20207;-73
2022/03/06 05:57:38;;;;;;;17.02;13.65;;;-0.30;99.90;;;;;;6117089;23;20195;-73
2022/03/06 06:00:08;;;;;;;14.05;11.02;;;-0.30;99.90;;;;;;6108259;23;20259;-73
2022/03/06 06:02:36;;;;;;;13.90;11.98;;;-0.20;99.90;;;;;;6118863;23;20194;-73
2022/03/06 06:05:06;;;;;;;15.15;11.65;;;-0.20;99.90;;;;;;6110479;23;20200;-73
2022/03/06 06:07:33;;;;;;;14.80;11.40;;;-0.20;99.90;;;;;;6107625;23;20675;-75
2022/03/06 06:10:00;;;;;;;15.45;11.63;;;-0.10;99.90;;;;;;6117438;23;20183;-73
2022/03/06 06:12:28;;;;;;;14.88;12.20;;;-0.10;99.90;;;;;;6114465;23;20184;-73
2022/03/06 06:14:55;;;;;;;14.75;12.13;;;-0.20;99.90;;;;;;6116129;23;20204;-73
2022/03/06 06:17:22;;;;;;;16.05;11.77;;;0.00;99.90;;;;;;6113412;23;20287;-73
2022/03/06 06:19:49;;;;;;;17.40;11.98;;;0.10;99.90;;;;;;6107092;23;20593;-73
2022/03/06 06:22:17;;;;;;;14.02;11.15;;;0.30;99.90;;;;;;6111487;23;20274;-73
2022/03/06 06:24:44;;;;;;;15.07;12.02;;;0.40;99.90;;;;;;6116091;23;20294;-73
2022/03/06 06:27:11;;;;;;;14.13;11.95;;;0.70;99.90;;;;;;6112280;23;20187;-73
2022/03/06 06:29:39;;;;;;;13.82;11.55;;;0.90;99.90;;;;;;6116503;23;20192;-73
2022/03/06 06:32:07;;;;;;;16.92;12.30;;;1.20;99.90;;;;;;6111162;23;20640;-73
2022/03/06 06:34:34;;;;;;;14.52;11.20;;;1.40;99.90;;;;;;6106669;23;20686;-73
2022/03/06 06:37:02;;;;;;;14.13;11.27;;;1.70;99.90;;;;;;6106239;23;20274;-73
2022/03/06 06:39:30;;;;;;;13.68;11.00;;;2.00;99.30;;;;;;6110896;23;20250;-75
2022/03/06 06:41:59;;;;;;;13.00;10.10;;;2.10;98.80;;;;;;6113434;23;20200;-73
2022/03/06 06:44:25;;;;;;;13.30;10.60;;;2.40;98.20;;;;;;6108624;23;20687;-73
2022/03/06 06:46:52;;;;;;;14.38;10.70;;;2.70;97.90;;;;;;6115395;23;20227;-73
2022/03/06 06:49:19;;;;;;;14.27;11.07;;;3.10;97.20;;;;;;6117472;23;20225;-74
2022/03/06 06:51:46;;;;;;;13.68;11.27;;;3.60;96.00;;;;;;6106646;23;20233;-74
2022/03/06 06:54:13;;;;;;;13.63;11.77;;;4.00;95.10;;;;;;6119560;23;20246;-73
2022/03/06 06:56:42;;;;;;;13.32;10.88;;;4.20;93.80;;;;;;6113480;23;20201;-74
2022/03/06 06:59:09;;;;;;;12.20;10.80;;;4.10;93.60;;;;;;6109644;23;20285;-73
2022/03/06 07:01:36;;;;;;;12.55;10.52;;;4.20;93.30;;;;;;6112754;23;20524;-73
2022/03/06 07:04:03;;;;;;;12.25;9.93;;;4.20;93.00;;;;;;6114422;23;20206;-74
2022/03/06 07:06:30;;;;;;;12.73;10.73;;;4.30;92.90;;;;;;6102389;23;20191;-73
2022/03/06 07:08:57;;;;;;;13.30;11.00;;;4.10;92.50;;;;;;6110031;23;20219;-74
2022/03/06 07:11:23;;;;;;;13.05;10.57;;;4.10;92.70;;;;;;6110777;23;20226;-74
2022/03/06 07:13:52;;;;;;;13.38;10.57;;;4.30;92.70;;;;;;6111003;23;20217;-74
2022/03/06 07:16:19;;;;;;;14.88;11.40;;;4.40;92.90;;;;;;6109883;23;20183;-73
2022/03/06 07:18:46;;;;;;;12.02;10.50;;;4.60;91.90;;;;;;6103899;23;20188;-74
2022/03/06 07:21:13;;;;;;;11.55;10.38;;;5.00;91.60;;;;;;6113807;23;20626;-79
2022/03/06 07:23:40;;;;;;;12.25;10.70;;;5.20;91.00;;;;;;6109708;23;20190;-73
2022/03/06 07:26:07;;;;;;;14.95;10.80;;;5.40;90.50;;;;;;6111719;23;20188;-74
2022/03/06 07:28:34;;;;;;;13.35;11.38;;;5.60;90.20;;;;;;6107441;23;20190;-73
2022/03/06 07:31:03;;;;;;;11.40;10.20;;;5.80;89.00;;;;;;6104673;23;20208;-74
2022/03/06 07:33:30;;;;;;;11.65;10.15;;;6.10;88.00;;;;;;6104137;23;20191;-73
2022/03/06 07:35:57;;;;;;;12.10;10.00;;;6.10;87.60;;;;;;6105505;23;20191;-74
2022/03/06 07:38:24;;;;;;;12.10;10.80;;;6.10;86.90;;;;;;6115752;23;20187;-73
2022/03/06 07:40:50;;;;;;;12.73;11.13;;;5.80;87.10;;;;;;6114173;23;20274;-74
2022/03/06 07:43:17;;;;;;;12.02;10.63;;;6.10;86.90;;;;;;6103220;23;20277;-73
2022/03/06 07:45:44;;;;;;;13.27;10.75;;;6.10;86.10;;;;;;6116756;23;20206;-74
2022/03/06 07:48:12;;;;;;;11.85;10.60;;;6.20;85.90;;;;;;6113604;23;20213;-74
2022/03/06 07:50:39;;;;;;;11.82;10.65;;;6.80;85.60;;;;;;6101267;23;20191;-74
2022/03/06 07:53:06;;;;;;;12.02;10.77;;;7.40;84.00;;;;;;6112811;23;20195;-74
2022/03/06 07:55:33;;;;;;;14.20;10.68;;;7.90;80.80;;;;;;6101835;23;20215;-74
2022/03/06 07:58:00;;;;;;;12.57;11.38;;;8.50;80.00;;;;;;6113891;23;20206;-73
2022/03/06 08:00:27;;;;;;;13.10;11.25;;;9.00;76.80;;;;;;6104359;23;20191;-74
2022/03/06 08:02:56;;;;;;;12.85;11.40;;;9.10;75.90;;;;;;6110200;23;20201;-73
2022/03/06 08:05:25;;;;;;;11.82;10.63;;;9.30;74.80;;;;;;6111524;23;20222;-74
2022/03/06 08:07:52;;;;;;;12.93;11.63;;;9.40;74.30;;;;;;6100009;23;20181;-74
2022/03/06 08:10:19;;;;;;;12.00;10.80;;;10.00;72.10;;;;;;6112477;23;20268;-74
2022/03/06 08:12:48;;;;;;;13.02;11.50;;;10.70;70.60;;;;;;6118642;23;20213;-74
2022/03/06 08:15:15;;;;;;;12.18;10.88;;;10.50;66.90;;;;;;6106498;23;20534;-75
2022/03/06 08:17:44;;;;;;;12.88;11.57;;;10.30;67.20;;;;;;6106387;23;20197;-74
2022/03/06 08:20:12;;;;;;;12.52;11.23;;;10.30;67.10;;;;;;6116593;23;20184;-74
2022/03/06 08:22:40;;;;;;;11.05;9.95;;;10.40;66.60;;;;;;6109729;23;20195;-73
2022/03/06 08:25:08;;;;;;;10.90;9.80;;;10.50;69.50;;;;;;6108059;23;20775;-73
2022/03/06 08:27:35;;;;;;;12.05;10.82;;;10.70;71.00;;;;;;6109650;23;20243;-75
2022/03/06 08:30:04;;;;;;;12.35;11.15;;;11.20;66.90;;;;;;6104457;23;20266;-75
2022/03/06 08:32:31;;;;;;;12.85;11.63;;;11.60;65.50;;;;;;6104072;23;20219;-74
2022/03/06 08:34:58;;;;;;;12.32;11.13;;;12.00;62.80;;;;;;6115249;23;20261;-74
2022/03/06 08:37:25;;;;;;;12.30;11.10;;;12.40;61.70;;;;;;6116422;23;20195;-74
2022/03/06 08:39:54;;;;;;;13.23;11.88;;;12.00;59.90;;;;;;6117060;23;20277;-74
2022/03/06 08:42:21;;;;;;;12.85;11.40;;;11.50;59.90;;;;;;6111249;23;20191;-75
2022/03/06 08:44:48;;;;;;;12.93;11.32;;;10.90;61.80;;;;;;6112226;23;20239;-75
2022/03/06 08:47:14;;;;;;;13.05;11.70;;;10.80;62.30;;;;;;6107948;23;20590;-75
2022/03/06 08:49:42;;;;;;;12.60;10.93;;;10.80;61.40;;;;;;6109180;23;20189;-75
2022/03/06 08:52:10;;;;;;;13.13;11.63;;;10.90;61.70;;;;;;6108672;23;20218;-75
2022/03/06 08:54:37;;;;;;;12.07;10.88;;;11.30;61.80;;;;;;6111437;23;20206;-75
2022/03/06 08:57:06;;;;;;;12.50;11.30;;;11.80;60.60;;;;;;6111598;23;20180;-74
2022/03/06 08:59:33;;;;;;;12.73;11.45;;;12.20;59.00;;;;;;6101908;23;20206;-75
2022/03/06 09:02:00;;;;;;;12.25;10.95;;;12.40;58.90;;;;;;6114157;23;20188;-74
2022/03/06 09:04:27;;;;;;;12.52;11.23;;;12.50;58.40;;;;;;6112939;23;20204;-72
2022/03/06 09:06:54;;;;;;;12.23;11.00;;;12.80;57.70;;;;;;6113925;23;20188;-75
2022/03/06 09:09:21;;;;;;;12.38;11.18;;;12.40;56.90;;;;;;6111560;23;20261;-75
2022/03/06 09:11:48;;;;;;;11.60;10.50;;;12.40;57.40;;;;;;6105188;23;20295;-77
2022/03/06 09:14:16;;;;;;;13.25;11.95;;;12.50;57.70;;;;;;6105267;23;20205;-75
2022/03/06 09:16:43;;;;;;;12.98;11.63;;;12.20;56.50;;;;;;6110383;23;20294;-76
2022/03/06 09:19:10;;;;;;;12.63;11.32;;;12.00;57.30;;;;;;6110809;23;20236;-75
2022/03/06 09:21:38;;;;;;;12.23;11.02;;;11.10;57.50;;;;;;6110823;23;20191;-74
2022/03/06 09:24:06;;;;;;;11.57;10.48;;;11.30;57.90;;;;;;6108148;23;20203;-75
2022/03/06 09:26:33;;;;;;;11.75;10.65;;;11.90;58.20;;;;;;6103433;23;21130;-75
2022/03/06 09:29:00;;;;;;;11.60;10.40;;;12.70;56.50;;;;;;6111170;23;20267;-76
2022/03/06 09:31:29;;;;;;;13.20;11.68;;;13.40;56.20;;;;;;6109958;23;20211;-82
2022/03/06 09:33:56;;;;;;;12.57;11.27;;;14.20;55.30;;;;;;6101648;23;20579;-77
2022/03/06 09:36:23;;;;;;;12.55;11.35;;;14.50;53.60;;;;;;6110826;23;20736;-76
2022/03/06 09:38:51;;;;;;;11.65;10.48;;;13.70;53.10;;;;;;6108258;23;20238;-76
2022/03/06 09:41:22;;;;;;;11.95;10.82;;;13.60;53.90;;;;;;6103050;23;20683;-76
2022/03/06 09:43:50;;;;;;;12.27;11.10;;;13.70;54.00;;;;;;6099310;23;20476;-76
2022/03/06 09:46:21;;;;;;;12.57;11.27;;;13.40;52.80;;;;;;6106550;23;20188;-76
2022/03/06 09:48:50;;;;;;;11.60;10.40;;;12.80;52.90;;;;;;6100338;23;20255;-76
2022/03/06 09:51:17;;;;;;;11.93;10.73;;;12.80;54.10;;;;;;6093220;23;20192;-76
2022/03/06 09:53:44;;;;;;;12.52;11.32;;;13.30;53.80;;;;;;6101936;23;20279;-75
2022/03/06 09:56:11;;;;;;;12.23;11.02;;;13.70;52.60;;;;;;6105063;23;20199;-76
2022/03/06 09:58:38;;;;;;;11.40;10.30;;;14.00;51.90;;;;;;6119115;23;20195;-75
2022/03/06 10:01:05;;;;;;;12.25;11.05;;;13.80;51.50;;;;;;6116684;23;20179;-75
2022/03/06 10:03:35;;;;;;;12.25;11.05;;;13.50;52.00;;;;;;6104483;23;20240;-76
2022/03/06 10:06:07;;;;;;;13.20;11.90;;;12.90;51.10;;;;;;6097438;23;20188;-75
2022/03/06 10:08:34;;;;;;;13.18;11.88;;;12.10;52.50;;;;;;6106173;23;20229;-75
2022/03/06 10:11:03;;;;;;;12.13;10.93;;;11.80;53.50;;;;;;6113002;23;20296;-76
2022/03/06 10:13:31;;;;;;;11.88;10.73;;;11.90;54.50;;;;;;6092005;23;20470;-75
2022/03/06 10:16:07;;;;;;;11.70;10.60;;;12.60;53.00;;;;;;6101062;23;20542;-76
2022/03/06 10:18:36;;;;;;;12.68;11.38;;;12.70;52.30;;;;;;6109514;23;20211;-75
2022/03/06 10:21:16;;;;;;;12.07;10.73;;;12.20;51.90;;;;;;6105255;23;20236;-75
2022/03/06 10:23:44;;;;;;;14.10;12.70;;;11.90;52.20;;;;;;6099025;23;20219;-76
2022/03/06 10:26:13;;;;;;;13.75;12.35;;;11.60;52.50;;;;;;6114335;23;20195;-75
2022/03/06 10:28:52;;;;;;;12.52;11.18;;;10.70;51.90;;;;;;6108033;23;20194;-75
2022/03/06 10:31:20;;;;;;;11.48;10.25;;;9.80;54.60;;;;;;6099432;23;20190;-75
2022/03/06 10:34:06;;;;;;;11.70;10.40;;;9.40;55.80;;;;;;6091861;23;20227;-75
2022/03/06 10:36:37;;;;;;;11.32;10.15;;;8.90;55.50;;;;;;6093457;23;20718;-75
2022/03/06 10:39:10;;;;;;;10.48;9.38;;;8.80;55.20;;;;;;6100204;23;20674;-75
2022/03/06 10:41:39;;;;;;;11.90;10.02;;;8.70;55.40;;;;;;6112287;23;20250;-75
2022/03/06 10:44:07;;;;;;;10.85;9.75;;;8.80;55.70;;;;;;6103768;23;20205;-75
2022/03/06 10:46:35;;;;;;;9.65;8.75;;;8.80;55.00;;;;;;6115982;23;20602;-75
2022/03/06 10:49:08;;;;;;;9.95;8.95;;;8.90;54.50;;;;;;6109036;23;20185;-75
2022/03/06 10:51:41;;;;;;;9.20;8.25;;;9.10;53.90;;;;;;6106775;23;20188;-75
2022/03/06 10:54:09;;;;;;;10.35;9.25;;;9.40;53.20;;;;;;6108609;23;20276;-75
2022/03/06 10:56:37;;;;;;;9.75;8.75;;;9.90;52.70;;;;;;6093443;23;20269;-75
2022/03/06 10:59:06;;;;;;;10.02;9.02;;;10.90;51.40;;;;;;6107478;23;20199;-76
2022/03/06 11:01:34;;;;;;;9.40;8.45;;;12.10;49.80;;;;;;6116646;23;20195;-76
2022/03/06 11:04:03;;;;;;;10.02;9.02;;;12.50;48.60;;;;;;6118537;23;20231;-76
2022/03/06 11:06:36;;;;;;;9.77;8.88;;;12.40;47.50;;;;;;6117694;23;20198;-76
2022/03/06 11:09:04;;;;;;;9.40;8.50;;;12.00;47.80;;;;;;6109035;23;20712;-76
2022/03/06 11:11:33;;;;;;;10.30;9.30;;;12.30;48.10;;;;;;6118877;23;20184;-76
2022/03/06 11:14:00;;;;;;;9.90;8.90;;;13.00;47.10;;;;;;6112323;23;20233;-75
2022/03/06 11:16:27;;;;;;;10.90;9.93;;;14.00;46.20;;;;;;6116381;23;20258;-76
2022/03/06 11:18:54;;;;;;;10.13;9.13;;;14.30;45.20;;;;;;6115834;23;20862;-76
2022/03/06 11:21:24;;;;;;;9.17;8.27;;;14.80;45.20;;;;;;6091262;23;20279;-76
2022/03/06 11:23:53;;;;;;;9.30;8.50;;;15.20;43.90;;;;;;6116003;23;20469;-76
2022/03/06 11:26:50;;;;;;;9.03;8.23;;;15.00;43.40;;;;;;6119617;23;20434;-75
2022/03/06 11:29:51;;;;;;;9.80;8.90;;;14.00;43.20;;;;;;6093977;23;20514;-75
2022/03/06 11:32:27;;;;;;;9.73;8.82;;;12.80;44.50;;;;;;6109409;23;20281;-75
2022/03/06 11:35:02;;;;;;;9.60;8.77;;;11.90;45.20;;;;;;6119093;23;20210;-76
2022/03/06 11:37:29;;;;;;;9.48;8.57;;;12.10;45.50;;;;;;6115798;23;20241;-75
2022/03/06 11:39:56;;;;;;;9.40;8.50;;;12.40;45.90;;;;;;6107389;23;20191;-76
2022/03/06 11:43:03;;;;;;;8.27;7.47;;;13.10;44.90;;;;;;6112808;23;20290;-76
2022/03/06 11:45:50;;;;;;;9.40;8.55;;;13.80;43.80;;;;;;6092552;23;20611;-76
2022/03/06 11:48:48;;;;;;;8.98;8.18;;;14.10;42.30;;;;;;6091518;23;20266;-76
2022/03/06 11:51:29;;;;;;;9.60;8.75;;;12.70;43.00;;;;;;6100658;23;20198;-76
2022/03/06 11:53:58;;;;;;;8.80;8.00;;;12.70;43.70;;;;;;6119037;23;20219;-76
2022/03/06 11:56:52;;;;;;;9.50;8.60;;;12.90;44.00;;;;;;6119021;23;20183;-76
2022/03/06 11:59:39;;;;;;;9.13;8.32;;;13.00;42.80;;;;;;6111405;23;20197;-76
2022/03/06 12:02:10;;;;;;;9.60;8.68;;;12.50;43.20;;;;;;6117266;23;20187;-76
2022/03/06 12:04:43;;;;;;;9.73;8.85;;;12.60;44.50;;;;;;6091774;23;20212;-76
2022/03/06 12:07:12;;;;;;;9.90;8.90;;;13.30;43.70;;;;;;6110895;23;20282;-76
2022/03/06 12:09:40;;;;;;;10.05;9.15;;;13.30;43.20;;;;;;6100904;23;20280;-77
2022/03/06 12:12:09;;;;;;;9.50;8.45;;;12.70;42.80;;;;;;6119242;23;20192;-76
2022/03/06 12:14:37;;;;;;;9.07;8.23;;;12.50;43.90;;;;;;6116051;23;20238;-77
2022/03/06 12:17:39;;;;;;;10.70;9.60;;;12.80;44.20;;;;;;6091506;23;20234;-77
2022/03/06 12:20:25;;;;;;;13.05;11.13;;;12.10;43.80;;;;;;6104868;23;20194;-77
2022/03/06 12:23:03;;;;;;;9.98;8.90;;;11.70;44.10;;;;;;6116471;23;20214;-77
2022/03/06 12:25:35;;;;;;;8.85;7.95;;;11.70;44.50;;;;;;6099109;23;20206;-77
2022/03/06 12:28:39;;;;;;;9.07;8.18;;;11.90;44.70;;;;;;6095062;23;20666;-78
2022/03/06 12:31:30;;;;;;;9.80;8.90;;;12.30;44.20;;;;;;6096119;23;20639;-78
2022/03/06 12:33:58;;;;;;;11.98;9.75;;;12.60;43.50;;;;;;6093616;23;20227;-77
2022/03/06 12:36:26;;;;;;;8.80;8.10;;;12.40;43.40;;;;;;6101814;23;20195;-77
2022/03/06 12:38:56;;;;;;;10.80;9.70;;;12.30;44.00;;;;;;6116830;23;20226;-77
2022/03/06 12:41:23;;;;;;;10.20;9.20;;;11.90;43.80;;;;;;6104909;23;20199;-77
2022/03/06 12:43:58;;;;;;;10.98;9.20;;;11.30;43.70;;;;;;6112225;23;20241;-77